Time;durP1;ratioP1;P1;durP2;ratioP2;P2;SDS_P1;SDS_P2;PMS_P1;PMS_P2;Temp;Humidity;BMP_temperature;BMP_pressure;BME280_temperature;BME280_humidity;BME280_pressure;Samples;Min_cycle;Max_cycle;Signal;HPM_P1;HPM_P2
2023/10/20 00:00:39;;;;;;;49.17;24.50;;;;;11.20;93887.00;;;;8305460;28;20248;-61
2023/10/20 00:04:42;;;;;;;46.97;24.63;;;;;11.20;93890.00;;;;8298219;28;20222;-61
2023/10/20 00:08:45;;;;;;;52.92;24.38;;;;;11.10;93885.00;;;;8295558;28;20210;-62
2023/10/20 00:12:48;;;;;;;46.90;24.52;;;;;11.10;93866.00;;;;8296870;28;20210;-61
2023/10/20 00:16:53;;;;;;;46.10;24.50;;;;;11.10;93864.00;;;;8298493;28;20231;-61
2023/10/20 00:20:56;;;;;;;50.55;24.45;;;;;11.10;93876.00;;;;8300503;28;20582;-61
2023/10/20 00:25:00;;;;;;;47.13;24.95;;;;;11.20;93872.00;;;;8298643;28;20201;-62
2023/10/20 00:29:03;;;;;;;48.42;24.52;;;;;11.20;93868.00;;;;8312980;28;20203;-61
2023/10/20 00:33:08;;;;;;;50.15;25.00;;;;;11.20;93850.00;;;;8308898;28;20192;-62
2023/10/20 00:37:11;;;;;;;47.58;26.25;;;;;11.20;93835.00;;;;8302755;28;20728;-62
2023/10/20 00:41:15;;;;;;;51.38;26.45;;;;;11.30;93821.00;;;;8304050;28;20999;-61
2023/10/20 00:45:19;;;;;;;49.25;25.83;;;;;11.40;93815.00;;;;8306737;28;20253;-62
2023/10/20 00:49:24;;;;;;;54.45;27.45;;;;;11.40;93796.00;;;;8306096;28;20204;-61
2023/10/20 00:53:32;;;;;;;46.83;25.08;;;;;11.50;93791.00;;;;8279467;28;20207;-62
2023/10/20 00:58:28;;;;;;;49.83;25.00;;;;;11.50;93785.00;;;;8293787;28;20225;-62
2023/10/20 01:02:32;;;;;;;49.10;25.58;;;;;11.50;93772.00;;;;8301240;28;20264;-61
2023/10/20 01:07:02;;;;;;;43.42;24.10;;;;;11.60;93769.00;;;;8306788;28;20582;-62
2023/10/20 01:11:05;;;;;;;43.28;23.58;;;;;11.60;93760.00;;;;8313118;28;20202;-62
2023/10/20 01:19:54;;;;;;;41.20;24.33;;;;;11.70;93757.00;;;;8375634;28;20730;-62
2023/10/20 01:24:01;;;;;;;41.00;22.92;;;;;11.70;93750.00;;;;8377277;28;20204;-61
2023/10/20 01:28:05;;;;;;;44.35;23.45;;;;;11.70;93751.00;;;;8378411;28;20245;-61
2023/10/20 01:32:08;;;;;;;42.78;23.75;;;;;11.70;93750.00;;;;8379895;28;20195;-62
2023/10/20 01:36:11;;;;;;;44.95;24.95;;;;;11.70;93738.00;;;;8380079;28;20197;-62
2023/10/20 01:40:17;;;;;;;46.42;26.33;;;;;11.70;93732.00;;;;8381352;28;20196;-61
2023/10/20 01:44:20;;;;;;;44.30;23.58;;;;;11.70;93725.00;;;;8380302;28;20207;-61
2023/10/20 01:48:23;;;;;;;43.38;25.05;;;;;11.70;93730.00;;;;8375605;28;20226;-62
2023/10/20 01:52:26;;;;;;;46.85;25.95;;;;;11.80;93727.00;;;;8379533;28;20200;-61
2023/10/20 01:56:31;;;;;;;47.83;25.90;;;;;11.80;93726.00;;;;8375808;28;20234;-61
2023/10/20 02:00:36;;;;;;;46.60;25.70;;;;;11.80;93709.00;;;;8381556;28;20246;-61
2023/10/20 02:04:39;;;;;;;48.30;25.83;;;;;11.80;93710.00;;;;8381183;28;20238;-62
2023/10/20 02:08:42;;;;;;;52.15;27.60;;;;;11.80;93702.00;;;;8385359;28;20195;-61
2023/10/20 02:12:47;;;;;;;51.00;25.88;;;;;11.90;93694.00;;;;8394271;28;20199;-62
2023/10/20 02:16:51;;;;;;;48.35;26.30;;;;;11.90;93686.00;;;;8380589;28;20269;-62
2023/10/20 02:20:58;;;;;;;54.58;28.63;;;;;11.80;93676.00;;;;8381455;28;20254;-61
2023/10/20 02:25:01;;;;;;;54.00;27.85;;;;;11.80;93666.00;;;;8382686;28;20313;-62
2023/10/20 02:29:06;;;;;;;45.42;25.52;;;;;11.80;93656.00;;;;8374616;28;20196;-62
2023/10/20 02:33:09;;;;;;;47.05;25.50;;;;;11.80;93660.00;;;;8380071;28;20199;-62
2023/10/20 02:37:14;;;;;;;43.00;25.17;;;;;11.80;93660.00;;;;8376981;28;20237;-62
2023/10/20 02:41:19;;;;;;;47.22;25.42;;;;;11.70;93653.00;;;;8389207;28;20207;-61
2023/10/20 02:45:23;;;;;;;42.92;25.55;;;;;11.70;93656.00;;;;8378856;28;20862;-62
2023/10/20 02:49:26;;;;;;;50.78;26.02;;;;;11.70;93641.00;;;;8376706;28;20756;-62
2023/10/20 02:53:29;;;;;;;48.80;26.80;;;;;11.70;93633.00;;;;8377741;28;20200;-62
2023/10/20 02:57:33;;;;;;;53.92;26.08;;;;;11.70;93633.00;;;;8384317;28;20231;-62
2023/10/20 03:01:37;;;;;;;56.30;29.20;;;;;11.70;93624.00;;;;8405438;22;20260;-62
2023/10/20 03:05:43;;;;;;;57.78;29.35;;;;;11.70;93628.00;;;;8366751;28;20205;-62
2023/10/20 03:09:46;;;;;;;55.03;29.45;;;;;11.70;93614.00;;;;8369718;28;20261;-61
2023/10/20 03:13:50;;;;;;;53.05;28.85;;;;;11.70;93592.00;;;;8373973;28;20204;-62
2023/10/20 03:17:54;;;;;;;47.65;26.45;;;;;11.70;93582.00;;;;8361380;28;20227;-62
2023/10/20 03:21:57;;;;;;;48.50;27.67;;;;;11.60;93590.00;;;;8375184;28;20238;-61
2023/10/20 03:26:00;;;;;;;51.42;27.63;;;;;11.60;93585.00;;;;8374127;28;20203;-62
2023/10/20 03:30:11;;;;;;;41.67;24.52;;;;;11.50;93577.00;;;;8369237;28;20223;-62
2023/10/20 03:34:15;;;;;;;45.85;26.10;;;;;11.50;93574.00;;;;8367716;28;20206;-61
2023/10/20 03:38:18;;;;;;;49.92;24.98;;;;;11.50;93575.00;;;;8377431;28;20246;-61
2023/10/20 03:42:21;;;;;;;46.90;25.13;;;;;11.50;93580.00;;;;8371752;28;20217;-62
2023/10/20 03:46:26;;;;;;;47.75;26.83;;;;;11.40;93574.00;;;;8368280;28;20215;-62
2023/10/20 03:50:35;;;;;;;45.83;25.02;;;;;11.40;93558.00;;;;8368419;28;20250;-62
2023/10/20 03:54:39;;;;;;;49.92;25.77;;;;;11.40;93554.00;;;;8372844;28;20198;-62
2023/10/20 03:58:46;;;;;;;51.05;26.20;;;;;11.30;93560.00;;;;8364742;28;20312;-63
2023/10/20 04:02:51;;;;;;;46.47;25.08;;;;;11.30;93556.00;;;;8369312;28;20235;-63
2023/10/20 04:06:56;;;;;;;46.33;24.52;;;;;11.20;93534.00;;;;8362867;28;20208;-62
2023/10/20 04:11:00;;;;;;;54.47;28.02;;;;;11.20;93521.00;;;;8367340;28;20210;-62
2023/10/20 04:15:04;;;;;;;54.20;27.95;;;;;11.10;93518.00;;;;8347250;28;20630;-63
2023/10/20 04:19:09;;;;;;;53.03;27.10;;;;;11.10;93499.00;;;;8362897;28;20668;-63
2023/10/20 04:23:14;;;;;;;48.33;25.23;;;;;11.00;93501.00;;;;8364816;28;20201;-62
2023/10/20 04:27:39;;;;;;;51.13;26.23;;;;;10.90;93486.00;;;;8355558;28;20200;-63
2023/10/20 04:53:43;;;;;;;60.42;26.98;;;;;10.70;93424.00;;;;8338315;28;20198;-67
2023/10/20 04:57:52;;;;;;;65.43;27.25;;;;;10.70;93402.00;;;;8356765;28;20625;-66
2023/10/20 05:01:59;;;;;;;62.05;27.38;;;;;10.70;93393.00;;;;8365991;28;20236;-68
2023/10/20 05:10:23;;;;;;;64.55;28.83;;;;;10.70;93360.00;;;;8372223;28;20196;-67
2023/10/20 05:14:28;;;;;;;54.65;21.75;;;;;10.70;93349.00;;;;8373518;28;20225;-68
2023/10/20 05:18:31;;;;;;;63.72;26.52;;;;;10.70;93341.00;;;;8365781;28;20226;-67
2023/10/20 05:22:35;;;;;;;63.03;25.90;;;;;10.70;93342.00;;;;8374536;28;20941;-66
2023/10/20 05:26:39;;;;;;;62.53;26.58;;;;;10.70;93303.00;;;;8364120;28;20636;-65
2023/10/20 05:30:45;;;;;;;63.05;27.55;;;;;10.70;93288.00;;;;8362759;28;20301;-65
2023/10/20 05:34:50;;;;;;;61.35;24.58;;;;;10.70;93267.00;;;;8374937;28;20642;-66
2023/10/20 05:38:53;;;;;;;77.15;33.47;;;;;10.70;93277.00;;;;8369261;28;20257;-67
2023/10/20 05:42:56;;;;;;;73.43;29.58;;;;;10.70;93276.00;;;;8369627;28;20206;-66
2023/10/20 05:47:01;;;;;;;72.60;27.55;;;;;10.70;93265.00;;;;8370595;28;20196;-66
2023/10/20 05:51:04;;;;;;;69.93;29.02;;;;;10.70;93272.00;;;;8370575;28;20196;-66
2023/10/20 05:55:08;;;;;;;79.03;30.88;;;;;10.80;93280.00;;;;8365320;28;20216;-65
2023/10/20 05:59:11;;;;;;;79.65;32.08;;;;;10.80;93269.00;;;;8367133;28;20707;-67
2023/10/20 06:03:15;;;;;;;83.68;31.90;;;;;10.80;93268.00;;;;8366503;28;20296;-66
2023/10/20 06:07:19;;;;;;;82.35;29.70;;;;;10.80;93280.00;;;;8368470;28;20204;-66
2023/10/20 06:11:22;;;;;;;79.70;30.48;;;;;10.90;93275.00;;;;8365679;28;20196;-66
2023/10/20 06:15:25;;;;;;;77.97;30.00;;;;;10.90;93263.00;;;;8364881;28;20202;-66
2023/10/20 06:19:31;;;;;;;87.50;33.38;;;;;10.90;93255.00;;;;8368218;28;20230;-67
2023/10/20 06:23:34;;;;;;;74.53;29.67;;;;;10.90;93259.00;;;;8364094;28;20249;-66
2023/10/20 06:27:37;;;;;;;77.63;30.17;;;;;10.90;93256.00;;;;8364251;28;20200;-66
2023/10/20 06:31:43;;;;;;;81.75;30.15;;;;;10.90;93253.00;;;;8368689;28;20223;-65
2023/10/20 06:35:53;;;;;;;75.38;29.98;;;;;10.90;93254.00;;;;8364352;28;20212;-66
2023/10/20 06:39:57;;;;;;;68.00;28.20;;;;;11.00;93274.00;;;;8369374;28;20239;-66
2023/10/20 06:44:00;;;;;;;81.63;31.20;;;;;11.10;93266.00;;;;8371320;28;20219;-66
2023/10/20 06:48:03;;;;;;;70.75;26.73;;;;;11.10;93246.00;;;;8365437;28;20290;-66
2023/10/20 06:52:08;;;;;;;69.80;29.33;;;;;11.10;93218.00;;;;8374159;28;20239;-66
2023/10/20 06:56:11;;;;;;;78.50;29.65;;;;;11.20;93203.00;;;;8370395;28;20283;-66
2023/10/20 07:00:20;;;;;;;74.70;30.58;;;;;11.20;93189.00;;;;8365525;28;20227;-66
2023/10/20 07:04:23;;;;;;;73.70;28.75;;;;;11.20;93168.00;;;;8371239;28;20249;-66
2023/10/20 07:08:29;;;;;;;74.10;31.02;;;;;11.20;93155.00;;;;8370384;28;20210;-66
2023/10/20 07:12:32;;;;;;;69.30;29.45;;;;;11.30;93160.00;;;;8366524;28;20265;-67
2023/10/20 07:16:36;;;;;;;68.85;27.30;;;;;11.30;93160.00;;;;8366490;28;20815;-66
2023/10/20 07:20:39;;;;;;;75.10;29.85;;;;;11.40;93141.00;;;;8366583;28;20249;-66
2023/10/20 07:24:44;;;;;;;69.20;29.60;;;;;11.40;93130.00;;;;8361971;28;20200;-65
2023/10/20 07:28:47;;;;;;;73.88;29.15;;;;;11.40;93116.00;;;;8363456;28;20294;-66
2023/10/20 07:32:51;;;;;;;63.45;26.98;;;;;11.40;93092.00;;;;8368003;28;20334;-66
2023/10/20 07:36:56;;;;;;;66.18;28.45;;;;;11.50;93050.00;;;;8359480;28;20229;-66
2023/10/20 07:41:07;;;;;;;64.20;27.73;;;;;11.50;93057.00;;;;8359876;28;20312;-65
2023/10/20 07:45:11;;;;;;;50.92;22.23;;;;;11.60;93052.00;;;;8360775;28;20827;-65
2023/10/20 07:49:14;;;;;;;74.50;29.42;;;;;11.60;93051.00;;;;8360475;28;20235;-65
2023/10/20 07:53:18;;;;;;;66.05;28.13;;;;;11.70;93057.00;;;;8363295;28;20826;-65
2023/10/20 07:57:24;;;;;;;66.60;30.92;;;;;11.70;93045.00;;;;8369822;28;20203;-65
2023/10/20 08:01:27;;;;;;;60.15;27.75;;;;;11.80;93035.00;;;;8367471;28;20293;-65
2023/10/20 08:05:30;;;;;;;64.78;30.73;;;;;11.90;93021.00;;;;8370637;28;20196;-65
2023/10/20 08:09:34;;;;;;;64.40;29.02;;;;;11.90;93022.00;;;;8365899;28;20210;-65
2023/10/20 08:13:39;;;;;;;62.67;28.55;;;;;11.90;93024.00;;;;8362079;28;20219;-65
2023/10/20 08:17:44;;;;;;;58.92;26.55;;;;;12.00;93041.00;;;;8368192;28;20301;-64
2023/10/20 08:21:47;;;;;;;50.58;23.63;;;;;12.00;93046.00;;;;8363409;28;20237;-64
2023/10/20 08:25:51;;;;;;;53.00;24.95;;;;;12.00;93038.00;;;;8363516;28;20202;-64
2023/10/20 08:29:57;;;;;;;58.28;26.63;;;;;12.10;93019.00;;;;8364403;28;20210;-65
2023/10/20 08:34:01;;;;;;;55.10;28.40;;;;;12.10;93015.00;;;;8361334;28;20291;-65
2023/10/20 08:38:05;;;;;;;50.97;26.27;;;;;12.20;93013.00;;;;8361025;28;20711;-65
2023/10/20 08:42:16;;;;;;;52.75;27.33;;;;;12.20;93011.00;;;;8364897;28;20240;-65
2023/10/20 08:46:22;;;;;;;56.42;27.73;;;;;12.30;93014.00;;;;8357788;28;20295;-65
2023/10/20 08:50:29;;;;;;;51.22;26.23;;;;;12.40;93034.00;;;;8362522;28;20204;-64
2023/10/20 08:54:33;;;;;;;46.42;24.85;;;;;12.50;93031.00;;;;8356918;28;20770;-64
2023/10/20 08:58:36;;;;;;;54.65;26.17;;;;;12.60;93021.00;;;;8361727;28;20874;-64
2023/10/20 09:02:41;;;;;;;49.08;25.98;;;;;12.70;93022.00;;;;8358695;28;20239;-65
2023/10/20 09:06:44;;;;;;;43.13;23.88;;;;;12.70;93019.00;;;;8358127;28;20235;-64
2023/10/20 09:10:48;;;;;;;49.95;25.08;;;;;12.80;93038.00;;;;8361311;28;20231;-64
2023/10/20 09:14:56;;;;;;;44.40;23.55;;;;;12.80;93035.00;;;;8367442;28;20199;-63
2023/10/20 09:19:01;;;;;;;42.20;23.65;;;;;12.90;93054.00;;;;8365745;28;20290;-65
2023/10/20 09:23:10;;;;;;;41.42;22.77;;;;;13.10;93048.00;;;;8362725;28;20283;-63
2023/10/20 09:27:17;;;;;;;36.42;22.23;;;;;13.20;93055.00;;;;8361596;28;20199;-64
2023/10/20 09:31:22;;;;;;;37.63;20.75;;;;;13.50;93035.00;;;;8363872;28;20218;-63
2023/10/20 09:35:29;;;;;;;35.53;21.17;;;;;13.60;93025.00;;;;8365191;28;20235;-64
2023/10/20 09:39:38;;;;;;;36.65;20.90;;;;;13.60;93032.00;;;;8361435;28;20243;-64
2023/10/20 09:43:47;;;;;;;38.35;21.80;;;;;13.60;93014.00;;;;8364126;28;20251;-63
2023/10/20 09:47:58;;;;;;;34.88;20.67;;;;;13.60;93000.00;;;;8367883;28;20231;-66
2023/10/20 09:52:05;;;;;;;34.03;20.75;;;;;13.70;92974.00;;;;8366361;28;20192;-65
2023/10/20 09:56:08;;;;;;;33.78;21.00;;;;;13.80;92983.00;;;;8365686;28;20196;-64
2023/10/20 10:00:12;;;;;;;32.15;19.83;;;;;13.80;92976.00;;;;8358451;28;20553;-65
2023/10/20 10:04:22;;;;;;;25.38;14.55;;;;;13.90;92986.00;;;;8363425;28;20278;-65
2023/10/20 10:08:27;;;;;;;27.67;17.88;;;;;14.00;92990.00;;;;8358284;28;20576;-65
2023/10/20 10:12:30;;;;;;;33.97;21.08;;;;;14.20;92978.00;;;;8359514;28;20204;-64
2023/10/20 10:16:38;;;;;;;31.92;19.42;;;;;14.10;92942.00;;;;8365553;28;20239;-67
2023/10/20 10:20:45;;;;;;;35.70;18.35;;;;;14.20;92952.00;;;;8362701;28;20306;-65
2023/10/20 10:24:53;;;;;;;29.13;18.75;;;;;14.20;92968.00;;;;8361110;28;20196;-65
2023/10/20 10:28:56;;;;;;;31.00;19.15;;;;;14.30;92983.00;;;;8363554;28;20208;-66
2023/10/20 10:32:59;;;;;;;29.63;18.20;;;;;14.20;92987.00;;;;8361650;28;20328;-66
2023/10/20 10:37:04;;;;;;;26.92;16.95;;;;;14.40;93004.00;;;;8369413;28;20200;-64
2023/10/20 10:41:08;;;;;;;29.23;16.65;;;;;14.50;93011.00;;;;8363406;28;20743;-65
2023/10/20 10:45:22;;;;;;;28.13;18.40;;;;;14.50;93019.00;;;;8367059;28;20210;-65
2023/10/20 10:49:26;;;;;;;28.50;17.75;;;;;14.60;93006.00;;;;8363719;28;20196;-65
2023/10/20 10:53:29;;;;;;;29.27;17.83;;;;;14.60;93007.00;;;;8367445;28;20205;-65
2023/10/20 10:57:35;;;;;;;29.98;19.02;;;;;14.70;93012.00;;;;8362030;28;20223;-65
2023/10/20 11:01:40;;;;;;;29.80;17.30;;;;;14.70;93015.00;;;;8367842;28;20258;-65
2023/10/20 11:05:44;;;;;;;38.55;18.77;;;;;14.80;93017.00;;;;8365757;28;20410;-65
2023/10/20 11:09:48;;;;;;;30.70;18.40;;;;;15.00;93021.00;;;;8368777;28;20197;-64
2023/10/20 11:13:53;;;;;;;24.27;15.02;;;;;15.30;93026.00;;;;8368829;28;20307;-65
2023/10/20 11:17:58;;;;;;;25.17;16.42;;;;;15.60;93037.00;;;;8361275;28;20291;-65
2023/10/20 11:22:02;;;;;;;26.90;15.98;;;;;15.90;93037.00;;;;8366890;28;20259;-65
2023/10/20 11:26:14;;;;;;;25.05;16.27;;;;;16.20;93038.00;;;;8364516;28;20206;-65
2023/10/20 11:30:22;;;;;;;20.50;14.02;;;;;16.60;93059.00;;;;8365883;28;20235;-65
2023/10/20 11:34:26;;;;;;;21.73;14.18;;;;;16.90;93061.00;;;;8368151;28;20208;-65
2023/10/20 11:38:30;;;;;;;20.42;14.93;;;;;17.10;93058.00;;;;8362709;28;20203;-65
2023/10/20 11:42:33;;;;;;;22.75;14.77;;;;;17.30;93110.00;;;;8360816;28;20869;-63
2023/10/20 11:46:38;;;;;;;22.10;13.38;;;;;17.50;93152.00;;;;8364166;28;20691;-64
2023/10/20 11:50:41;;;;;;;18.42;12.93;;;;;17.60;93152.00;;;;8367286;28;20208;-65
2023/10/20 11:54:45;;;;;;;18.33;12.45;;;;;17.70;93164.00;;;;8369261;28;20365;-65
2023/10/20 11:58:48;;;;;;;19.63;13.57;;;;;17.60;93135.00;;;;8367286;28;20200;-65
2023/10/20 12:02:52;;;;;;;19.27;13.20;;;;;17.90;93140.00;;;;8363904;28;20258;-64
2023/10/20 12:06:56;;;;;;;19.45;13.57;;;;;18.20;93107.00;;;;8365030;28;20231;-63
2023/10/20 12:11:00;;;;;;;18.20;13.18;;;;;18.50;93106.00;;;;8364549;28;20220;-63
2023/10/20 12:15:05;;;;;;;22.10;13.63;;;;;18.80;93121.00;;;;8367175;28;20196;-63
2023/10/20 12:19:09;;;;;;;17.63;12.68;;;;;18.90;93118.00;;;;8368496;28;20543;-63
2023/10/20 12:23:12;;;;;;;21.67;13.27;;;;;19.10;93135.00;;;;8366947;28;20318;-62
2023/10/20 12:27:17;;;;;;;18.50;13.13;;;;;19.30;93127.00;;;;8356237;28;20204;-63
2023/10/20 12:31:22;;;;;;;17.55;12.60;;;;;19.20;93152.00;;;;8363792;28;20208;-64
2023/10/20 12:35:27;;;;;;;22.33;13.00;;;;;19.30;93163.00;;;;8363088;28;20942;-63
2023/10/20 12:39:32;;;;;;;19.52;12.55;;;;;19.40;93156.00;;;;8363834;28;20197;-63
2023/10/20 12:43:35;;;;;;;17.85;12.98;;;;;19.50;93153.00;;;;8362124;28;20259;-63
2023/10/20 12:47:38;;;;;;;18.00;12.18;;;;;19.70;93165.00;;;;8364322;28;20196;-64
2023/10/20 12:51:43;;;;;;;19.15;12.45;;;;;19.80;93185.00;;;;8368824;28;20203;-64
2023/10/20 12:55:47;;;;;;;17.98;12.30;;;;;19.70;93188.00;;;;8372061;28;20200;-63
2023/10/20 12:59:50;;;;;;;16.88;12.13;;;;;19.70;93189.00;;;;8372344;28;20206;-63
2023/10/20 13:04:02;;;;;;;16.63;12.18;;;;;19.70;93201.00;;;;8380461;28;20297;-64
2023/10/20 13:08:08;;;;;;;20.70;12.63;;;;;19.70;93209.00;;;;8361815;28;20209;-63
2023/10/20 13:12:11;;;;;;;21.90;12.25;;;;;19.70;93221.00;;;;8369011;28;20202;-63
2023/10/20 13:16:14;;;;;;;18.70;13.10;;;;;19.60;93213.00;;;;8366214;28;20197;-63
2023/10/20 13:20:17;;;;;;;24.30;15.80;;;;;19.50;93217.00;;;;8377759;28;20200;-63
2023/10/20 13:24:22;;;;;;;41.97;24.88;;;;;19.40;93219.00;;;;8373618;28;20276;-63
2023/10/20 13:28:26;;;;;;;20.52;14.77;;;;;19.30;93241.00;;;;8374292;28;20215;-63
2023/10/20 13:32:29;;;;;;;20.17;14.02;;;;;19.20;93239.00;;;;8372877;28;20515;-63
2023/10/20 13:36:34;;;;;;;17.63;12.27;;;;;19.40;93227.00;;;;8367230;28;20928;-63
2023/10/20 13:40:39;;;;;;;16.85;12.38;;;;;19.70;93233.00;;;;8379911;28;20199;-63
2023/10/20 13:44:42;;;;;;;15.40;11.63;;;;;19.90;93239.00;;;;8376560;28;20231;-64
2023/10/20 13:48:45;;;;;;;23.13;14.32;;;;;20.20;93254.00;;;;8375946;28;20196;-64
2023/10/20 13:52:49;;;;;;;16.92;11.85;;;;;20.30;93266.00;;;;8375730;28;20198;-63
2023/10/20 13:56:54;;;;;;;45.53;25.58;;;;;20.40;93274.00;;;;8376050;28;20227;-63
2023/10/20 14:00:58;;;;;;;15.70;11.20;;;;;20.40;93270.00;;;;8372933;28;20230;-64
2023/10/20 14:05:01;;;;;;;30.77;18.20;;;;;20.30;93293.00;;;;8373783;28;20651;-63
2023/10/20 14:09:04;;;;;;;20.45;14.55;;;;;20.00;93307.00;;;;8376770;28;20232;-63
2023/10/20 14:13:09;;;;;;;18.65;12.40;;;;;19.90;93304.00;;;;8376072;28;20665;-63
2023/10/20 14:17:12;;;;;;;23.38;13.50;;;;;19.60;93295.00;;;;8377481;28;20215;-63
2023/10/20 14:21:15;;;;;;;21.90;11.77;;;;;19.50;93284.00;;;;8378869;28;20224;-62
2023/10/20 14:25:18;;;;;;;16.42;12.00;;;;;19.50;93275.00;;;;8375653;28;20196;-63
2023/10/20 14:29:23;;;;;;;20.85;11.68;;;;;19.50;93292.00;;;;8380790;28;20192;-63
2023/10/20 14:33:27;;;;;;;22.25;13.75;;;;;19.50;93306.00;;;;8367038;28;21045;-63
2023/10/20 14:37:30;;;;;;;18.17;12.23;;;;;19.60;93299.00;;;;8378726;28;20200;-63
2023/10/20 14:41:33;;;;;;;15.57;12.07;;;;;19.70;93303.00;;;;8373408;28;20220;-63
2023/10/20 14:45:39;;;;;;;14.85;11.20;;;;;19.80;93331.00;;;;8374847;28;20565;-63
2023/10/20 14:49:42;;;;;;;18.45;11.77;;;;;19.70;93345.00;;;;8370358;28;20219;-63
2023/10/20 14:53:45;;;;;;;17.17;11.85;;;;;19.70;93338.00;;;;8364665;28;20187;-63
2023/10/20 14:57:49;;;;;;;15.63;11.40;;;;;19.60;93347.00;;;;8377073;28;20214;-62
2023/10/20 15:01:53;;;;;;;17.55;11.45;;;;;19.40;93343.00;;;;8375991;28;20612;-63
2023/10/20 15:05:57;;;;;;;16.83;10.88;;;;;19.30;93363.00;;;;8371635;28;20196;-63
2023/10/20 15:10:01;;;;;;;16.98;12.10;;;;;19.10;93371.00;;;;8362591;28;20192;-63
2023/10/20 15:14:04;;;;;;;18.85;12.43;;;;;19.00;93386.00;;;;8377775;28;20203;-63
2023/10/20 15:18:09;;;;;;;15.55;10.38;;;;;18.90;93389.00;;;;8369334;28;20203;-63
2023/10/20 15:22:12;;;;;;;16.65;10.30;;;;;18.80;93399.00;;;;8372921;28;20342;-63
2023/10/20 15:26:17;;;;;;;12.98;9.73;;;;;18.70;93412.00;;;;8370671;28;20258;-63
2023/10/20 15:30:20;;;;;;;12.65;9.15;;;;;18.60;93432.00;;;;8372830;28;20205;-62
2023/10/20 15:34:24;;;;;;;13.32;9.18;;;;;18.60;93441.00;;;;8370112;28;20200;-62
2023/10/20 15:38:28;;;;;;;13.75;9.00;;;;;18.60;93449.00;;;;8371678;28;20228;-62
2023/10/20 15:42:31;;;;;;;12.75;8.48;;;;;18.60;93432.00;;;;8372949;28;20695;-63
2023/10/20 15:46:34;;;;;;;14.63;9.68;;;;;18.60;93437.00;;;;8372348;28;20192;-63
2023/10/20 15:50:43;;;;;;;14.77;9.98;;;;;18.50;93446.00;;;;8374239;28;20286;-62
2023/10/20 15:54:47;;;;;;;17.33;9.60;;;;;18.30;93463.00;;;;8376593;28;20200;-63
2023/10/20 15:58:50;;;;;;;16.48;9.68;;;;;18.20;93483.00;;;;8373919;28;20204;-63
2023/10/20 16:02:53;;;;;;;14.82;9.98;;;;;18.00;93500.00;;;;8366878;28;20322;-63
2023/10/20 16:06:57;;;;;;;22.45;11.07;;;;;17.90;93511.00;;;;8371358;28;20196;-63
2023/10/20 16:11:01;;;;;;;19.10;11.90;;;;;17.80;93517.00;;;;8367443;28;20199;-63
2023/10/20 16:15:06;;;;;;;22.05;12.23;;;;;17.80;93531.00;;;;8371242;28;20645;-63
2023/10/20 16:19:10;;;;;;;14.38;10.70;;;;;17.60;93540.00;;;;8376540;28;20200;-63
2023/10/20 16:23:14;;;;;;;19.75;12.48;;;;;17.60;93532.00;;;;8376964;28;20232;-62
2023/10/20 16:27:18;;;;;;;18.38;13.35;;;;;17.50;93541.00;;;;8379485;28;20705;-63
2023/10/20 16:31:22;;;;;;;21.42;15.88;;;;;17.40;93551.00;;;;8367876;28;20193;-63
2023/10/20 16:35:25;;;;;;;19.38;13.48;;;;;17.40;93550.00;;;;8376178;28;20196;-62
2023/10/20 16:39:30;;;;;;;17.08;12.20;;;;;17.40;93561.00;;;;8378486;28;20192;-62
2023/10/20 16:43:33;;;;;;;21.05;12.85;;;;;17.30;93570.00;;;;8376136;28;20231;-62
2023/10/20 16:47:36;;;;;;;19.10;13.32;;;;;17.30;93563.00;;;;8379160;28;20784;-62
2023/10/20 16:51:43;;;;;;;18.35;12.25;;;;;17.10;93562.00;;;;8370546;28;20235;-62
2023/10/20 16:55:47;;;;;;;16.67;12.18;;;;;17.10;93561.00;;;;8372811;28;20204;-63
2023/10/20 16:59:50;;;;;;;16.63;12.25;;;;;17.10;93570.00;;;;8369979;28;20220;-63
2023/10/20 17:03:54;;;;;;;17.77;12.68;;;;;17.00;93578.00;;;;8361748;28;20232;-63
2023/10/20 17:07:57;;;;;;;16.38;12.00;;;;;17.00;93604.00;;;;8374126;28;20717;-62
2023/10/20 17:12:02;;;;;;;18.60;12.48;;;;;17.00;93615.00;;;;8378489;28;20199;-63
2023/10/20 17:16:06;;;;;;;18.90;12.73;;;;;17.00;93620.00;;;;8372786;28;20245;-63
2023/10/20 17:20:11;;;;;;;20.23;12.68;;;;;17.00;93644.00;;;;8373639;28;20238;-63
2023/10/20 17:24:14;;;;;;;17.52;12.52;;;;;17.00;93637.00;;;;8377632;28;20254;-63
2023/10/20 17:28:18;;;;;;;15.77;11.23;;;;;17.00;93645.00;;;;8374923;28;20302;-63
2023/10/20 17:32:22;;;;;;;13.90;9.82;;;;;17.00;93636.00;;;;8376384;28;20200;-62
2023/10/20 17:36:25;;;;;;;11.25;9.18;;;;;17.10;93628.00;;;;8371329;28;20196;-62
2023/10/20 17:40:28;;;;;;;15.93;9.25;;;;;17.10;93627.00;;;;8379853;28;20204;-63
2023/10/20 17:44:33;;;;;;;17.50;9.05;;;;;17.10;93654.00;;;;8369256;28;20231;-62
2023/10/20 17:48:36;;;;;;;13.88;9.32;;;;;17.10;93665.00;;;;8379106;28;20208;-62
2023/10/20 17:52:39;;;;;;;16.92;9.10;;;;;17.10;93682.00;;;;8373629;28;20273;-62
2023/10/20 17:56:43;;;;;;;13.25;7.43;;;;;17.20;93702.00;;;;8373828;28;20620;-62
2023/10/20 18:00:48;;;;;;;14.02;7.95;;;;;17.20;93714.00;;;;8378139;28;20200;-62
2023/10/20 18:04:52;;;;;;;12.00;7.75;;;;;17.10;93712.00;;;;8375551;28;20266;-62
2023/10/20 18:08:55;;;;;;;9.10;6.97;;;;;17.20;93724.00;;;;8377731;28;20319;-62
2023/10/20 18:12:58;;;;;;;10.98;6.45;;;;;17.10;93742.00;;;;8374517;28;20609;-62
2023/10/20 18:17:03;;;;;;;8.63;6.63;;;;;17.10;93749.00;;;;8369866;28;20226;-62
2023/10/20 18:21:07;;;;;;;8.10;6.20;;;;;17.10;93737.00;;;;8373591;28;20617;-62
2023/10/20 18:25:11;;;;;;;7.70;5.78;;;;;17.10;93731.00;;;;8376546;28;20912;-62
2023/10/20 18:29:14;;;;;;;7.38;5.50;;;;;17.00;93739.00;;;;8374960;28;20287;-62
2023/10/20 18:33:18;;;;;;;7.97;5.63;;;;;17.00;93730.00;;;;8369504;28;20192;-62
2023/10/20 18:37:21;;;;;;;9.25;5.85;;;;;16.90;93742.00;;;;8379159;28;20699;-62
2023/10/20 18:41:25;;;;;;;5.95;5.03;;;;;16.80;93743.00;;;;8376634;28;20208;-62
2023/10/20 18:45:28;;;;;;;6.25;5.47;;;;;16.70;93764.00;;;;8375187;28;20259;-62
2023/10/20 18:49:32;;;;;;;6.57;5.38;;;;;16.70;93764.00;;;;8374913;28;20208;-63
2023/10/20 18:53:36;;;;;;;7.80;5.10;;;;;16.40;93778.00;;;;8372365;28;20197;-64
2023/10/20 18:57:39;;;;;;;5.80;5.10;;;;;16.20;93786.00;;;;8370159;28;20196;-66
2023/10/20 19:01:42;;;;;;;5.22;4.63;;;;;15.90;93775.00;;;;8367017;28;20331;-64
2023/10/20 19:05:48;;;;;;;4.93;4.05;;;;;15.70;93771.00;;;;8373102;28;21258;-63
2023/10/20 19:09:53;;;;;;;4.80;3.95;;;;;15.60;93777.00;;;;8372182;28;20883;-64
2023/10/20 19:13:57;;;;;;;6.15;4.20;;;;;15.50;93786.00;;;;8374567;28;20212;-65
2023/10/20 19:18:00;;;;;;;6.47;4.53;;;;;15.30;93780.00;;;;8371278;28;20292;-66
2023/10/20 19:22:05;;;;;;;6.32;4.40;;;;;15.30;93792.00;;;;8372949;28;20977;-66
2023/10/20 19:26:11;;;;;;;6.00;4.32;;;;;15.20;93789.00;;;;8373534;28;20246;-66
2023/10/20 19:30:14;;;;;;;3.58;3.28;;;;;15.10;93806.00;;;;8372900;28;20707;-65
2023/10/20 19:34:18;;;;;;;3.85;3.45;;;;;15.00;93812.00;;;;8372301;28;20700;-65
2023/10/20 19:38:22;;;;;;;3.67;2.67;;;;;15.00;93826.00;;;;8363475;28;20208;-64
2023/10/20 19:42:25;;;;;;;3.97;2.60;;;;;14.90;93829.00;;;;8367914;28;20203;-65
2023/10/20 19:46:28;;;;;;;2.70;2.40;;;;;14.90;93835.00;;;;8366355;28;20233;-65
2023/10/20 19:50:32;;;;;;;3.28;2.25;;;;;14.80;93834.00;;;;8369647;28;20530;-65
2023/10/20 19:54:36;;;;;;;2.65;1.88;;;;;14.80;93829.00;;;;8373862;28;20406;-65
2023/10/20 19:58:41;;;;;;;5.30;2.20;;;;;14.70;93846.00;;;;8371947;28;20228;-65
2023/10/20 20:02:44;;;;;;;2.50;2.30;;;;;14.70;93839.00;;;;8365419;28;20254;-66
2023/10/20 20:06:47;;;;;;;3.72;3.13;;;;;14.70;93833.00;;;;8367143;28;20232;-66
2023/10/20 20:10:51;;;;;;;2.15;1.83;;;;;14.70;93847.00;;;;8367873;28;20207;-66
2023/10/20 20:14:55;;;;;;;1.92;1.80;;;;;14.60;93838.00;;;;8369530;28;20193;-66
2023/10/20 20:18:58;;;;;;;2.40;2.20;;;;;14.60;93837.00;;;;8364907;28;20200;-67
2023/10/20 20:23:01;;;;;;;2.42;2.00;;;;;14.60;93839.00;;;;8364392;28;20210;-67
2023/10/20 20:27:06;;;;;;;2.20;2.00;;;;;14.50;93868.00;;;;8368430;28;20665;-67